sensor_id;sensor_type;location;lat;lon;timestamp;P1;durP1;ratioP1;P2;durP2;ratioP2
51465;SDS011;37542;50.164;9.086;2022-11-06T00:02:14;9.23;;;5.65;;
51465;SDS011;37542;50.164;9.086;2022-11-06T00:05:55;10.55;;;6.05;;
51465;SDS011;37542;50.164;9.086;2022-11-06T00:09:54;9.15;;;6.65;;
51465;SDS011;37542;50.164;9.086;2022-11-06T00:13:35;9.57;;;6.50;;
51465;SDS011;37542;50.164;9.086;2022-11-06T00:17:16;9.10;;;6.45;;
51465;SDS011;37542;50.164;9.086;2022-11-06T00:20:57;8.80;;;5.53;;
51465;SDS011;37542;50.164;9.086;2022-11-06T00:24:38;11.02;;;5.72;;
51465;SDS011;37542;50.164;9.086;2022-11-06T00:28:19;8.57;;;5.35;;
51465;SDS011;37542;50.164;9.086;2022-11-06T00:31:59;10.77;;;5.70;;
51465;SDS011;37542;50.164;9.086;2022-11-06T00:35:40;8.65;;;4.65;;
51465;SDS011;37542;50.164;9.086;2022-11-06T00:39:21;8.80;;;5.13;;
51465;SDS011;37542;50.164;9.086;2022-11-06T00:43:02;7.45;;;5.18;;
51465;SDS011;37542;50.164;9.086;2022-11-06T00:46:42;10.43;;;5.75;;
51465;SDS011;37542;50.164;9.086;2022-11-06T00:50:23;6.47;;;4.82;;
51465;SDS011;37542;50.164;9.086;2022-11-06T00:54:06;8.30;;;4.82;;
51465;SDS011;37542;50.164;9.086;2022-11-06T00:57:50;7.93;;;5.30;;
51465;SDS011;37542;50.164;9.086;2022-11-06T01:01:32;6.60;;;4.30;;
51465;SDS011;37542;50.164;9.086;2022-11-06T01:05:18;7.97;;;4.65;;
51465;SDS011;37542;50.164;9.086;2022-11-06T01:08:59;8.30;;;4.25;;
51465;SDS011;37542;50.164;9.086;2022-11-06T01:12:40;4.78;;;3.22;;
51465;SDS011;37542;50.164;9.086;2022-11-06T01:16:21;6.90;;;3.40;;
51465;SDS011;37542;50.164;9.086;2022-11-06T01:20:04;4.95;;;3.40;;
51465;SDS011;37542;50.164;9.086;2022-11-06T01:23:46;5.07;;;2.95;;
51465;SDS011;37542;50.164;9.086;2022-11-06T01:27:39;4.18;;;2.72;;
51465;SDS011;37542;50.164;9.086;2022-11-06T01:31:21;5.30;;;2.60;;
51465;SDS011;37542;50.164;9.086;2022-11-06T01:35:05;6.38;;;2.83;;
51465;SDS011;37542;50.164;9.086;2022-11-06T01:38:47;4.03;;;2.60;;
51465;SDS011;37542;50.164;9.086;2022-11-06T01:42:32;4.43;;;3.03;;
51465;SDS011;37542;50.164;9.086;2022-11-06T01:46:13;7.18;;;3.17;;
51465;SDS011;37542;50.164;9.086;2022-11-06T01:49:57;7.97;;;3.60;;
51465;SDS011;37542;50.164;9.086;2022-11-06T01:53:44;6.65;;;4.07;;
51465;SDS011;37542;50.164;9.086;2022-11-06T01:57:25;8.10;;;4.78;;
51465;SDS011;37542;50.164;9.086;2022-11-06T02:01:06;7.68;;;4.32;;
51465;SDS011;37542;50.164;9.086;2022-11-06T02:04:47;7.53;;;5.03;;
51465;SDS011;37542;50.164;9.086;2022-11-06T02:08:29;6.20;;;4.20;;
51465;SDS011;37542;50.164;9.086;2022-11-06T02:12:17;8.10;;;5.20;;
51465;SDS011;37542;50.164;9.086;2022-11-06T02:27:47;7.75;;;5.18;;
51465;SDS011;37542;50.164;9.086;2022-11-06T02:31:37;6.90;;;4.47;;
51465;SDS011;37542;50.164;9.086;2022-11-06T02:39:17;7.13;;;4.78;;
51465;SDS011;37542;50.164;9.086;2022-11-06T02:43:02;6.00;;;3.78;;
51465;SDS011;37542;50.164;9.086;2022-11-06T02:46:50;10.13;;;5.95;;
51465;SDS011;37542;50.164;9.086;2022-11-06T02:50:41;7.43;;;5.18;;
51465;SDS011;37542;50.164;9.086;2022-11-06T02:54:27;7.30;;;5.03;;
51465;SDS011;37542;50.164;9.086;2022-11-06T02:58:24;6.97;;;5.25;;
51465;SDS011;37542;50.164;9.086;2022-11-06T03:02:22;9.10;;;5.20;;
51465;SDS011;37542;50.164;9.086;2022-11-06T03:06:11;6.80;;;4.68;;
51465;SDS011;37542;50.164;9.086;2022-11-06T03:10:17;7.63;;;5.00;;
51465;SDS011;37542;50.164;9.086;2022-11-06T03:22:11;8.23;;;4.53;;
51465;SDS011;37542;50.164;9.086;2022-11-06T03:26:13;6.65;;;4.55;;
51465;SDS011;37542;50.164;9.086;2022-11-06T03:30:03;5.57;;;3.22;;
51465;SDS011;37542;50.164;9.086;2022-11-06T03:33:49;7.25;;;4.35;;
51465;SDS011;37542;50.164;9.086;2022-11-06T03:37:38;7.68;;;4.28;;
51465;SDS011;37542;50.164;9.086;2022-11-06T03:41:42;6.25;;;3.88;;
51465;SDS011;37542;50.164;9.086;2022-11-06T03:45:42;6.90;;;4.72;;
51465;SDS011;37542;50.164;9.086;2022-11-06T03:49:30;6.30;;;4.40;;
51465;SDS011;37542;50.164;9.086;2022-11-06T03:53:22;5.63;;;3.47;;
51465;SDS011;37542;50.164;9.086;2022-11-06T03:57:18;7.75;;;4.15;;
51465;SDS011;37542;50.164;9.086;2022-11-06T04:01:13;7.05;;;4.03;;
51465;SDS011;37542;50.164;9.086;2022-11-06T04:05:03;6.43;;;3.97;;
51465;SDS011;37542;50.164;9.086;2022-11-06T04:08:51;6.55;;;3.75;;
51465;SDS011;37542;50.164;9.086;2022-11-06T04:12:55;6.35;;;3.60;;
51465;SDS011;37542;50.164;9.086;2022-11-06T04:17:00;8.27;;;3.83;;
51465;SDS011;37542;50.164;9.086;2022-11-06T04:21:20;5.28;;;4.00;;
51465;SDS011;37542;50.164;9.086;2022-11-06T04:30:08;6.10;;;3.13;;
51465;SDS011;37542;50.164;9.086;2022-11-06T04:34:07;5.03;;;3.35;;
51465;SDS011;37542;50.164;9.086;2022-11-06T04:42:08;5.38;;;3.47;;
51465;SDS011;37542;50.164;9.086;2022-11-06T04:46:05;5.22;;;3.78;;
51465;SDS011;37542;50.164;9.086;2022-11-06T04:49:51;5.05;;;3.42;;
51465;SDS011;37542;50.164;9.086;2022-11-06T04:53:39;6.03;;;3.20;;
51465;SDS011;37542;50.164;9.086;2022-11-06T04:57:21;6.82;;;3.50;;
51465;SDS011;37542;50.164;9.086;2022-11-06T05:01:03;4.93;;;3.20;;
51465;SDS011;37542;50.164;9.086;2022-11-06T05:04:45;5.60;;;2.90;;
51465;SDS011;37542;50.164;9.086;2022-11-06T05:08:26;4.05;;;2.60;;
51465;SDS011;37542;50.164;9.086;2022-11-06T05:12:06;3.42;;;2.33;;
51465;SDS011;37542;50.164;9.086;2022-11-06T05:15:48;5.65;;;2.70;;
51465;SDS011;37542;50.164;9.086;2022-11-06T05:19:36;3.10;;;2.20;;
51465;SDS011;37542;50.164;9.086;2022-11-06T05:23:17;4.32;;;2.30;;
51465;SDS011;37542;50.164;9.086;2022-11-06T05:26:57;4.00;;;2.55;;
51465;SDS011;37542;50.164;9.086;2022-11-06T05:30:38;6.30;;;2.95;;
51465;SDS011;37542;50.164;9.086;2022-11-06T05:34:19;4.53;;;2.80;;
51465;SDS011;37542;50.164;9.086;2022-11-06T05:38:00;3.72;;;2.60;;
51465;SDS011;37542;50.164;9.086;2022-11-06T05:41:42;5.43;;;2.83;;
51465;SDS011;37542;50.164;9.086;2022-11-06T05:45:23;6.03;;;2.75;;
51465;SDS011;37542;50.164;9.086;2022-11-06T05:49:04;3.63;;;2.58;;
51465;SDS011;37542;50.164;9.086;2022-11-06T05:52:44;4.18;;;2.60;;
51465;SDS011;37542;50.164;9.086;2022-11-06T05:56:25;3.30;;;2.08;;
51465;SDS011;37542;50.164;9.086;2022-11-06T06:00:06;4.28;;;2.00;;
51465;SDS011;37542;50.164;9.086;2022-11-06T06:03:49;6.82;;;2.83;;
51465;SDS011;37542;50.164;9.086;2022-11-06T06:07:30;4.97;;;2.88;;
51465;SDS011;37542;50.164;9.086;2022-11-06T06:11:11;4.95;;;2.33;;
51465;SDS011;37542;50.164;9.086;2022-11-06T06:14:52;3.45;;;2.38;;
51465;SDS011;37542;50.164;9.086;2022-11-06T06:18:33;4.65;;;2.40;;
51465;SDS011;37542;50.164;9.086;2022-11-06T06:22:14;3.50;;;2.10;;
51465;SDS011;37542;50.164;9.086;2022-11-06T06:25:55;3.30;;;2.30;;
51465;SDS011;37542;50.164;9.086;2022-11-06T06:29:36;4.40;;;2.78;;
51465;SDS011;37542;50.164;9.086;2022-11-06T06:33:17;4.35;;;2.88;;
51465;SDS011;37542;50.164;9.086;2022-11-06T06:36:58;6.47;;;2.55;;
51465;SDS011;37542;50.164;9.086;2022-11-06T06:40:39;5.03;;;2.78;;
51465;SDS011;37542;50.164;9.086;2022-11-06T06:44:20;5.15;;;2.72;;
51465;SDS011;37542;50.164;9.086;2022-11-06T06:48:01;3.72;;;2.50;;
51465;SDS011;37542;50.164;9.086;2022-11-06T06:51:46;4.32;;;2.90;;
51465;SDS011;37542;50.164;9.086;2022-11-06T06:55:28;6.63;;;4.00;;
51465;SDS011;37542;50.164;9.086;2022-11-06T06:59:09;5.50;;;3.30;;
51465;SDS011;37542;50.164;9.086;2022-11-06T07:02:50;4.70;;;3.25;;
51465;SDS011;37542;50.164;9.086;2022-11-06T07:06:31;5.32;;;3.55;;
51465;SDS011;37542;50.164;9.086;2022-11-06T07:10:12;5.18;;;3.30;;
51465;SDS011;37542;50.164;9.086;2022-11-06T07:13:53;6.72;;;3.88;;
51465;SDS011;37542;50.164;9.086;2022-11-06T07:17:33;5.00;;;3.35;;
51465;SDS011;37542;50.164;9.086;2022-11-06T07:21:14;5.03;;;2.85;;
51465;SDS011;37542;50.164;9.086;2022-11-06T07:24:55;5.28;;;2.88;;
51465;SDS011;37542;50.164;9.086;2022-11-06T07:28:36;4.72;;;3.28;;
51465;SDS011;37542;50.164;9.086;2022-11-06T07:32:17;4.07;;;2.63;;
51465;SDS011;37542;50.164;9.086;2022-11-06T07:36:02;5.22;;;2.90;;
51465;SDS011;37542;50.164;9.086;2022-11-06T07:39:52;4.05;;;3.10;;
51465;SDS011;37542;50.164;9.086;2022-11-06T07:43:33;4.90;;;3.40;;
51465;SDS011;37542;50.164;9.086;2022-11-06T07:47:14;6.60;;;3.90;;
51465;SDS011;37542;50.164;9.086;2022-11-06T07:50:55;7.32;;;3.50;;
51465;SDS011;37542;50.164;9.086;2022-11-06T07:54:36;5.22;;;3.55;;
51465;SDS011;37542;50.164;9.086;2022-11-06T07:58:17;5.18;;;3.05;;
51465;SDS011;37542;50.164;9.086;2022-11-06T08:01:59;5.93;;;3.67;;
51465;SDS011;37542;50.164;9.086;2022-11-06T08:05:40;5.00;;;3.42;;
51465;SDS011;37542;50.164;9.086;2022-11-06T08:09:21;6.72;;;4.75;;
51465;SDS011;37542;50.164;9.086;2022-11-06T08:13:04;4.97;;;3.15;;
51465;SDS011;37542;50.164;9.086;2022-11-06T08:16:49;5.43;;;3.17;;
51465;SDS011;37542;50.164;9.086;2022-11-06T08:20:30;4.95;;;3.22;;
51465;SDS011;37542;50.164;9.086;2022-11-06T08:24:11;8.20;;;3.90;;
51465;SDS011;37542;50.164;9.086;2022-11-06T08:27:55;6.80;;;3.45;;
51465;SDS011;37542;50.164;9.086;2022-11-06T08:31:36;5.68;;;3.50;;
51465;SDS011;37542;50.164;9.086;2022-11-06T08:35:17;7.10;;;4.22;;
51465;SDS011;37542;50.164;9.086;2022-11-06T08:38:58;5.20;;;3.33;;
51465;SDS011;37542;50.164;9.086;2022-11-06T08:42:42;11.27;;;4.70;;
51465;SDS011;37542;50.164;9.086;2022-11-06T08:46:22;6.30;;;3.80;;
51465;SDS011;37542;50.164;9.086;2022-11-06T08:50:03;4.93;;;2.95;;
51465;SDS011;37542;50.164;9.086;2022-11-06T08:53:45;5.47;;;3.03;;
51465;SDS011;37542;50.164;9.086;2022-11-06T08:57:26;4.38;;;2.80;;
51465;SDS011;37542;50.164;9.086;2022-11-06T09:01:07;5.55;;;3.30;;
51465;SDS011;37542;50.164;9.086;2022-11-06T09:04:49;4.68;;;2.90;;
51465;SDS011;37542;50.164;9.086;2022-11-06T09:08:29;5.75;;;3.47;;
51465;SDS011;37542;50.164;9.086;2022-11-06T09:12:10;6.05;;;3.75;;
51465;SDS011;37542;50.164;9.086;2022-11-06T09:15:51;5.63;;;3.55;;
51465;SDS011;37542;50.164;9.086;2022-11-06T09:19:37;5.28;;;3.22;;
51465;SDS011;37542;50.164;9.086;2022-11-06T09:23:21;5.57;;;3.05;;
51465;SDS011;37542;50.164;9.086;2022-11-06T09:27:03;5.07;;;3.20;;
51465;SDS011;37542;50.164;9.086;2022-11-06T09:30:46;5.63;;;3.33;;
51465;SDS011;37542;50.164;9.086;2022-11-06T09:34:27;5.93;;;3.40;;
51465;SDS011;37542;50.164;9.086;2022-11-06T09:38:10;6.35;;;2.90;;
51465;SDS011;37542;50.164;9.086;2022-11-06T09:41:55;4.15;;;2.92;;
51465;SDS011;37542;50.164;9.086;2022-11-06T09:45:55;4.70;;;3.30;;
51465;SDS011;37542;50.164;9.086;2022-11-06T09:49:53;4.38;;;2.65;;
51465;SDS011;37542;50.164;9.086;2022-11-06T09:53:40;4.07;;;3.05;;
51465;SDS011;37542;50.164;9.086;2022-11-06T09:57:42;5.97;;;3.28;;
51465;SDS011;37542;50.164;9.086;2022-11-06T10:02:08;6.30;;;3.13;;
51465;SDS011;37542;50.164;9.086;2022-11-06T10:05:42;6.05;;;2.80;;
51465;SDS011;37542;50.164;9.086;2022-11-06T10:09:26;3.75;;;2.78;;
51465;SDS011;37542;50.164;9.086;2022-11-06T10:22:31;3.85;;;2.63;;
51465;SDS011;37542;50.164;9.086;2022-11-06T10:37:35;4.03;;;2.90;;
51465;SDS011;37542;50.164;9.086;2022-11-06T10:41:28;4.07;;;2.90;;
51465;SDS011;37542;50.164;9.086;2022-11-06T10:45:13;3.53;;;2.50;;
51465;SDS011;37542;50.164;9.086;2022-11-06T10:48:57;3.90;;;2.63;;
51465;SDS011;37542;50.164;9.086;2022-11-06T10:52:45;3.63;;;2.35;;
51465;SDS011;37542;50.164;9.086;2022-11-06T10:57:00;3.95;;;2.40;;
51465;SDS011;37542;50.164;9.086;2022-11-06T11:01:08;4.00;;;2.30;;
51465;SDS011;37542;50.164;9.086;2022-11-06T11:04:53;3.87;;;2.30;;
51465;SDS011;37542;50.164;9.086;2022-11-06T11:08:36;3.00;;;2.05;;
51465;SDS011;37542;50.164;9.086;2022-11-06T11:12:27;3.28;;;2.53;;
51465;SDS011;37542;50.164;9.086;2022-11-06T11:20:27;8.07;;;2.13;;
51465;SDS011;37542;50.164;9.086;2022-11-06T11:24:10;3.63;;;2.10;;
51465;SDS011;37542;50.164;9.086;2022-11-06T11:27:51;3.00;;;1.80;;
51465;SDS011;37542;50.164;9.086;2022-11-06T11:31:33;2.85;;;2.00;;
51465;SDS011;37542;50.164;9.086;2022-11-06T11:35:16;3.90;;;1.90;;
51465;SDS011;37542;50.164;9.086;2022-11-06T11:39:11;2.95;;;1.90;;
51465;SDS011;37542;50.164;9.086;2022-11-06T11:42:53;3.67;;;2.30;;
51465;SDS011;37542;50.164;9.086;2022-11-06T11:46:54;3.08;;;1.85;;
51465;SDS011;37542;50.164;9.086;2022-11-06T11:50:34;3.70;;;2.00;;
51465;SDS011;37542;50.164;9.086;2022-11-06T11:54:25;3.30;;;2.15;;
51465;SDS011;37542;50.164;9.086;2022-11-06T11:58:19;3.10;;;2.10;;
51465;SDS011;37542;50.164;9.086;2022-11-06T12:06:25;2.28;;;1.80;;
51465;SDS011;37542;50.164;9.086;2022-11-06T12:18:14;2.13;;;1.70;;
51465;SDS011;37542;50.164;9.086;2022-11-06T12:22:04;3.65;;;1.98;;
51465;SDS011;37542;50.164;9.086;2022-11-06T12:26:00;2.75;;;1.83;;
51465;SDS011;37542;50.164;9.086;2022-11-06T12:29:50;3.13;;;1.92;;
51465;SDS011;37542;50.164;9.086;2022-11-06T12:33:52;2.60;;;1.65;;
51465;SDS011;37542;50.164;9.086;2022-11-06T12:42:26;3.05;;;1.65;;
51465;SDS011;37542;50.164;9.086;2022-11-06T12:47:22;3.65;;;2.00;;
51465;SDS011;37542;50.164;9.086;2022-11-06T12:57:05;3.70;;;2.13;;
51465;SDS011;37542;50.164;9.086;2022-11-06T13:01:40;3.45;;;2.58;;
51465;SDS011;37542;50.164;9.086;2022-11-06T13:15:44;2.40;;;1.80;;
51465;SDS011;37542;50.164;9.086;2022-11-06T13:24:27;2.65;;;1.90;;
51465;SDS011;37542;50.164;9.086;2022-11-06T13:28:57;3.17;;;1.92;;
51465;SDS011;37542;50.164;9.086;2022-11-06T13:32:58;2.45;;;1.80;;
51465;SDS011;37542;50.164;9.086;2022-11-06T13:40:41;2.70;;;2.10;;
51465;SDS011;37542;50.164;9.086;2022-11-06T13:44:29;3.60;;;2.20;;
51465;SDS011;37542;50.164;9.086;2022-11-06T13:48:22;3.17;;;2.17;;
51465;SDS011;37542;50.164;9.086;2022-11-06T14:00:52;3.50;;;2.17;;
51465;SDS011;37542;50.164;9.086;2022-11-06T14:09:54;3.75;;;2.58;;
51465;SDS011;37542;50.164;9.086;2022-11-06T14:18:03;3.70;;;2.20;;
51465;SDS011;37542;50.164;9.086;2022-11-06T14:21:46;3.88;;;2.30;;
51465;SDS011;37542;50.164;9.086;2022-11-06T14:34:25;4.30;;;3.17;;
51465;SDS011;37542;50.164;9.086;2022-11-06T14:38:42;4.05;;;2.85;;
51465;SDS011;37542;50.164;9.086;2022-11-06T14:46:05;5.15;;;3.30;;
51465;SDS011;37542;50.164;9.086;2022-11-06T14:50:02;5.75;;;3.55;;
51465;SDS011;37542;50.164;9.086;2022-11-06T14:54:01;4.78;;;3.38;;
51465;SDS011;37542;50.164;9.086;2022-11-06T14:58:28;4.07;;;2.83;;
51465;SDS011;37542;50.164;9.086;2022-11-06T15:06:33;5.10;;;3.42;;
51465;SDS011;37542;50.164;9.086;2022-11-06T15:10:50;8.32;;;3.63;;
51465;SDS011;37542;50.164;9.086;2022-11-06T15:18:15;8.38;;;4.88;;
51465;SDS011;37542;50.164;9.086;2022-11-06T15:30:08;7.70;;;5.13;;
51465;SDS011;37542;50.164;9.086;2022-11-06T15:37:49;7.03;;;4.57;;
51465;SDS011;37542;50.164;9.086;2022-11-06T15:41:54;11.43;;;6.05;;
51465;SDS011;37542;50.164;9.086;2022-11-06T15:45:35;8.40;;;5.30;;
51465;SDS011;37542;50.164;9.086;2022-11-06T15:49:19;10.20;;;5.53;;
51465;SDS011;37542;50.164;9.086;2022-11-06T16:01:48;7.32;;;4.78;;
51465;SDS011;37542;50.164;9.086;2022-11-06T16:05:29;6.05;;;4.43;;
51465;SDS011;37542;50.164;9.086;2022-11-06T16:09:20;7.65;;;5.03;;
51465;SDS011;37542;50.164;9.086;2022-11-06T16:13:05;6.28;;;4.13;;
51465;SDS011;37542;50.164;9.086;2022-11-06T16:16:54;5.25;;;4.03;;
51465;SDS011;37542;50.164;9.086;2022-11-06T16:24:52;7.28;;;4.32;;
51465;SDS011;37542;50.164;9.086;2022-11-06T16:28:44;6.78;;;4.70;;
51465;SDS011;37542;50.164;9.086;2022-11-06T16:32:30;6.78;;;4.55;;
51465;SDS011;37542;50.164;9.086;2022-11-06T16:36:20;6.05;;;4.28;;
51465;SDS011;37542;50.164;9.086;2022-11-06T16:40:02;5.93;;;3.97;;
51465;SDS011;37542;50.164;9.086;2022-11-06T16:43:45;6.43;;;4.30;;
51465;SDS011;37542;50.164;9.086;2022-11-06T16:48:26;6.32;;;4.45;;
51465;SDS011;37542;50.164;9.086;2022-11-06T16:56:03;6.03;;;4.47;;
51465;SDS011;37542;50.164;9.086;2022-11-06T16:59:57;7.00;;;5.10;;
51465;SDS011;37542;50.164;9.086;2022-11-06T17:03:59;6.53;;;4.63;;
51465;SDS011;37542;50.164;9.086;2022-11-06T17:07:45;7.28;;;5.15;;
51465;SDS011;37542;50.164;9.086;2022-11-06T17:12:02;7.03;;;4.82;;
51465;SDS011;37542;50.164;9.086;2022-11-06T17:16:03;7.43;;;4.90;;
51465;SDS011;37542;50.164;9.086;2022-11-06T17:19:47;7.68;;;5.10;;
51465;SDS011;37542;50.164;9.086;2022-11-06T17:23:28;8.10;;;5.07;;
51465;SDS011;37542;50.164;9.086;2022-11-06T17:27:10;6.95;;;4.70;;
51465;SDS011;37542;50.164;9.086;2022-11-06T17:30:51;7.15;;;4.75;;
51465;SDS011;37542;50.164;9.086;2022-11-06T17:34:33;6.57;;;4.95;;
51465;SDS011;37542;50.164;9.086;2022-11-06T17:38:15;8.13;;;5.47;;
51465;SDS011;37542;50.164;9.086;2022-11-06T17:41:57;9.20;;;5.60;;
51465;SDS011;37542;50.164;9.086;2022-11-06T17:45:38;5.82;;;4.25;;
51465;SDS011;37542;50.164;9.086;2022-11-06T17:49:23;7.68;;;5.47;;
51465;SDS011;37542;50.164;9.086;2022-11-06T17:53:04;7.38;;;5.22;;
51465;SDS011;37542;50.164;9.086;2022-11-06T17:56:44;6.43;;;4.80;;
51465;SDS011;37542;50.164;9.086;2022-11-06T18:00:26;6.88;;;4.88;;
51465;SDS011;37542;50.164;9.086;2022-11-06T18:04:07;7.25;;;5.32;;
51465;SDS011;37542;50.164;9.086;2022-11-06T18:07:48;7.18;;;5.03;;
51465;SDS011;37542;50.164;9.086;2022-11-06T18:11:29;7.32;;;5.28;;
51465;SDS011;37542;50.164;9.086;2022-11-06T18:15:40;7.35;;;5.07;;
51465;SDS011;37542;50.164;9.086;2022-11-06T18:19:22;6.78;;;5.03;;
51465;SDS011;37542;50.164;9.086;2022-11-06T18:23:04;7.10;;;5.00;;
51465;SDS011;37542;50.164;9.086;2022-11-06T18:26:44;6.68;;;5.05;;
51465;SDS011;37542;50.164;9.086;2022-11-06T18:30:25;6.85;;;5.00;;
51465;SDS011;37542;50.164;9.086;2022-11-06T18:34:06;7.40;;;5.13;;
51465;SDS011;37542;50.164;9.086;2022-11-06T18:37:53;6.90;;;4.90;;
51465;SDS011;37542;50.164;9.086;2022-11-06T18:41:34;6.32;;;4.60;;
51465;SDS011;37542;50.164;9.086;2022-11-06T18:45:15;6.05;;;4.13;;
51465;SDS011;37542;50.164;9.086;2022-11-06T18:48:56;5.40;;;4.40;;
51465;SDS011;37542;50.164;9.086;2022-11-06T18:52:37;5.15;;;3.95;;
51465;SDS011;37542;50.164;9.086;2022-11-06T18:56:18;6.57;;;4.28;;
51465;SDS011;37542;50.164;9.086;2022-11-06T18:59:59;5.38;;;3.65;;
51465;SDS011;37542;50.164;9.086;2022-11-06T19:03:43;5.70;;;3.85;;
51465;SDS011;37542;50.164;9.086;2022-11-06T19:07:25;7.40;;;4.90;;
51465;SDS011;37542;50.164;9.086;2022-11-06T19:11:09;7.30;;;4.95;;
51465;SDS011;37542;50.164;9.086;2022-11-06T19:14:58;6.35;;;4.78;;
51465;SDS011;37542;50.164;9.086;2022-11-06T19:18:39;7.18;;;4.63;;
51465;SDS011;37542;50.164;9.086;2022-11-06T19:22:20;6.55;;;4.72;;
51465;SDS011;37542;50.164;9.086;2022-11-06T19:26:05;7.35;;;4.30;;
51465;SDS011;37542;50.164;9.086;2022-11-06T19:33:29;5.47;;;4.20;;
51465;SDS011;37542;50.164;9.086;2022-11-06T19:37:09;5.07;;;3.30;;
51465;SDS011;37542;50.164;9.086;2022-11-06T19:40:57;4.85;;;3.65;;
51465;SDS011;37542;50.164;9.086;2022-11-06T19:44:40;7.63;;;4.25;;
51465;SDS011;37542;50.164;9.086;2022-11-06T19:48:21;5.05;;;3.63;;
51465;SDS011;37542;50.164;9.086;2022-11-06T19:52:02;6.07;;;3.65;;
51465;SDS011;37542;50.164;9.086;2022-11-06T19:55:43;6.40;;;3.55;;
51465;SDS011;37542;50.164;9.086;2022-11-06T19:59:25;4.93;;;3.58;;
51465;SDS011;37542;50.164;9.086;2022-11-06T20:03:06;4.93;;;3.33;;
51465;SDS011;37542;50.164;9.086;2022-11-06T20:11:04;4.53;;;3.22;;
51465;SDS011;37542;50.164;9.086;2022-11-06T20:14:51;4.20;;;3.17;;
51465;SDS011;37542;50.164;9.086;2022-11-06T20:18:32;4.28;;;3.20;;
51465;SDS011;37542;50.164;9.086;2022-11-06T20:22:19;8.18;;;4.60;;
51465;SDS011;37542;50.164;9.086;2022-11-06T20:26:05;4.28;;;3.00;;
51465;SDS011;37542;50.164;9.086;2022-11-06T20:29:46;3.60;;;2.78;;
51465;SDS011;37542;50.164;9.086;2022-11-06T20:33:53;4.20;;;2.97;;
51465;SDS011;37542;50.164;9.086;2022-11-06T20:37:36;3.97;;;2.90;;
51465;SDS011;37542;50.164;9.086;2022-11-06T20:41:17;4.00;;;2.90;;
51465;SDS011;37542;50.164;9.086;2022-11-06T20:44:58;4.55;;;2.97;;
51465;SDS011;37542;50.164;9.086;2022-11-06T20:48:39;3.20;;;2.28;;
51465;SDS011;37542;50.164;9.086;2022-11-06T20:52:24;3.33;;;2.50;;
51465;SDS011;37542;50.164;9.086;2022-11-06T20:56:06;3.90;;;2.92;;
51465;SDS011;37542;50.164;9.086;2022-11-06T21:00:00;3.33;;;2.45;;
51465;SDS011;37542;50.164;9.086;2022-11-06T21:03:41;4.63;;;2.90;;
51465;SDS011;37542;50.164;9.086;2022-11-06T21:07:28;4.45;;;2.83;;
51465;SDS011;37542;50.164;9.086;2022-11-06T21:11:10;4.15;;;2.58;;
51465;SDS011;37542;50.164;9.086;2022-11-06T21:14:57;3.72;;;2.88;;
51465;SDS011;37542;50.164;9.086;2022-11-06T21:18:51;5.25;;;3.42;;
51465;SDS011;37542;50.164;9.086;2022-11-06T21:22:35;4.13;;;3.17;;
51465;SDS011;37542;50.164;9.086;2022-11-06T21:26:20;4.70;;;2.65;;
51465;SDS011;37542;50.164;9.086;2022-11-06T21:30:04;4.57;;;2.65;;
51465;SDS011;37542;50.164;9.086;2022-11-06T21:33:47;3.80;;;2.45;;
51465;SDS011;37542;50.164;9.086;2022-11-06T21:37:30;6.47;;;4.50;;
51465;SDS011;37542;50.164;9.086;2022-11-06T21:41:13;6.30;;;4.28;;
51465;SDS011;37542;50.164;9.086;2022-11-06T21:44:56;4.78;;;3.33;;
51465;SDS011;37542;50.164;9.086;2022-11-06T21:48:37;6.53;;;3.15;;
51465;SDS011;37542;50.164;9.086;2022-11-06T21:52:20;4.60;;;2.63;;
51465;SDS011;37542;50.164;9.086;2022-11-06T21:56:19;4.95;;;2.63;;
51465;SDS011;37542;50.164;9.086;2022-11-06T22:00:01;3.60;;;2.45;;
51465;SDS011;37542;50.164;9.086;2022-11-06T22:03:42;2.83;;;1.92;;
51465;SDS011;37542;50.164;9.086;2022-11-06T22:07:24;3.42;;;2.10;;
51465;SDS011;37542;50.164;9.086;2022-11-06T22:14:57;2.10;;;1.73;;
51465;SDS011;37542;50.164;9.086;2022-11-06T22:18:38;2.67;;;2.00;;
51465;SDS011;37542;50.164;9.086;2022-11-06T22:22:19;2.75;;;1.90;;
51465;SDS011;37542;50.164;9.086;2022-11-06T22:26:07;3.58;;;2.00;;
51465;SDS011;37542;50.164;9.086;2022-11-06T22:29:54;3.80;;;2.05;;
51465;SDS011;37542;50.164;9.086;2022-11-06T22:33:35;2.70;;;1.80;;
51465;SDS011;37542;50.164;9.086;2022-11-06T22:37:16;3.50;;;1.92;;
51465;SDS011;37542;50.164;9.086;2022-11-06T22:40:57;3.03;;;1.90;;
51465;SDS011;37542;50.164;9.086;2022-11-06T22:44:40;3.92;;;2.28;;
51465;SDS011;37542;50.164;9.086;2022-11-06T22:48:20;3.25;;;2.00;;
51465;SDS011;37542;50.164;9.086;2022-11-06T22:52:01;4.28;;;2.22;;
51465;SDS011;37542;50.164;9.086;2022-11-06T22:55:42;2.80;;;1.80;;
51465;SDS011;37542;50.164;9.086;2022-11-06T22:59:23;2.88;;;1.88;;
51465;SDS011;37542;50.164;9.086;2022-11-06T23:03:03;2.70;;;1.52;;
51465;SDS011;37542;50.164;9.086;2022-11-06T23:06:44;2.22;;;1.80;;
51465;SDS011;37542;50.164;9.086;2022-11-06T23:10:25;3.17;;;1.90;;
51465;SDS011;37542;50.164;9.086;2022-11-06T23:14:08;3.05;;;2.10;;
51465;SDS011;37542;50.164;9.086;2022-11-06T23:17:50;2.50;;;1.70;;
51465;SDS011;37542;50.164;9.086;2022-11-06T23:21:31;3.70;;;2.03;;
51465;SDS011;37542;50.164;9.086;2022-11-06T23:25:12;3.53;;;2.08;;
51465;SDS011;37542;50.164;9.086;2022-11-06T23:28:54;3.90;;;2.15;;
51465;SDS011;37542;50.164;9.086;2022-11-06T23:32:36;4.65;;;1.90;;
51465;SDS011;37542;50.164;9.086;2022-11-06T23:36:18;3.45;;;1.98;;
51465;SDS011;37542;50.164;9.086;2022-11-06T23:39:58;5.38;;;2.17;;
51465;SDS011;37542;50.164;9.086;2022-11-06T23:43:39;2.78;;;2.00;;
51465;SDS011;37542;50.164;9.086;2022-11-06T23:47:20;2.63;;;1.65;;
51465;SDS011;37542;50.164;9.086;2022-11-06T23:51:01;3.15;;;1.80;;
51465;SDS011;37542;50.164;9.086;2022-11-06T23:54:41;5.47;;;1.95;;
51465;SDS011;37542;50.164;9.086;2022-11-06T23:58:22;5.10;;;1.60;;
